createdAt,value
2024-02-17T00:02:16.948Z,28.80
2024-02-17T00:07:20.658Z,26.00
2024-02-17T00:12:24.606Z,26.07
2024-02-17T00:17:28.087Z,21.77
2024-02-17T00:22:31.618Z,25.17
2024-02-17T00:27:35.107Z,28.80
2024-02-17T00:32:38.574Z,30.03
2024-02-17T00:37:43.491Z,32.47
2024-02-17T00:42:47.188Z,25.00
2024-02-17T00:47:51.845Z,22.07
2024-02-17T00:52:57.573Z,21.47
2024-02-17T00:58:02.453Z,34.43
2024-02-17T01:03:06.225Z,27.20
2024-02-17T01:08:11.445Z,25.53
2024-02-17T01:13:14.925Z,26.37
2024-02-17T01:18:18.703Z,30.83
2024-02-17T01:23:22.370Z,23.17
2024-02-17T01:28:25.669Z,25.23
2024-02-17T01:33:29.153Z,22.57
2024-02-17T01:38:32.718Z,22.67
2024-02-17T01:43:36.285Z,23.10
2024-02-17T01:48:40.297Z,20.47
2024-02-17T01:53:44.209Z,22.73
2024-02-17T01:58:49.075Z,24.13
2024-02-17T02:03:52.716Z,26.47
2024-02-17T02:08:56.627Z,27.63
2024-02-17T02:14:17.377Z,24.23
2024-02-17T02:19:21.011Z,30.40
2024-02-17T02:24:25.784Z,21.43
2024-02-17T02:29:29.281Z,23.53
2024-02-17T02:34:32.798Z,27.50
2024-02-17T02:39:37.087Z,23.43
2024-02-17T02:44:40.728Z,26.50
2024-02-17T02:49:44.341Z,28.93
2024-02-17T02:54:48.764Z,25.67
2024-02-17T02:59:52.394Z,33.23
2024-02-17T03:04:57.157Z,29.00
2024-02-17T03:10:00.680Z,25.03
2024-02-17T03:15:04.905Z,25.83
2024-02-17T03:20:08.876Z,30.70
2024-02-17T03:25:13.399Z,27.90
2024-02-17T03:30:17.085Z,21.83
2024-02-17T03:35:20.416Z,27.03
2024-02-17T03:40:23.985Z,33.80
2024-02-17T03:45:27.478Z,27.03
2024-02-17T03:50:31.098Z,33.20
2024-02-17T03:55:34.559Z,29.83
2024-02-17T04:00:38.059Z,35.90
2024-02-17T04:05:41.713Z,29.87
2024-02-17T04:10:45.311Z,35.47
2024-02-17T04:15:48.944Z,29.60
2024-02-17T04:20:52.829Z,27.73
2024-02-17T04:25:57.728Z,29.07
2024-02-17T04:31:01.376Z,31.50
2024-02-17T04:36:09.223Z,30.33
2024-02-17T04:41:12.692Z,30.67
2024-02-17T04:46:16.402Z,29.23
2024-02-17T04:51:19.930Z,31.77
2024-02-17T04:56:23.324Z,40.37
2024-02-17T05:01:26.953Z,35.30
2024-02-17T05:06:30.503Z,29.10
2024-02-17T05:11:33.992Z,29.17
2024-02-17T05:16:37.501Z,27.97
2024-02-17T05:21:44.904Z,28.87
2024-02-17T05:26:48.590Z,59.37
2024-02-17T05:31:52.202Z,37.03
2024-02-17T05:36:57.931Z,113.63
2024-02-17T05:42:02.480Z,37.83
2024-02-17T05:47:06.150Z,33.13
2024-02-17T05:52:09.553Z,29.03
2024-02-17T05:57:13.330Z,35.27
2024-02-17T06:02:18.017Z,40.23
2024-02-17T06:07:22.459Z,35.20
2024-02-17T06:12:25.985Z,47.50
2024-02-17T06:17:29.714Z,62.80
2024-02-17T06:22:33.334Z,63.50
2024-02-17T06:27:36.742Z,59.03
2024-02-17T06:32:40.299Z,58.90
2024-02-17T06:37:43.634Z,36.57
2024-02-17T06:42:47.176Z,79.77
2024-02-17T06:47:51.689Z,58.73
2024-02-17T06:52:54.901Z,47.00
2024-02-17T06:57:58.398Z,46.90
2024-02-17T07:03:05.083Z,71.53
2024-02-17T07:08:17.977Z,56.73
2024-02-17T07:13:21.376Z,37.20
2024-02-17T07:18:24.882Z,33.07
2024-02-17T07:23:31.781Z,111.67
2024-02-17T07:28:38.254Z,42.03
2024-02-17T07:33:41.957Z,40.57
2024-02-17T07:38:45.493Z,49.90
2024-02-17T07:43:49.956Z,38.77
2024-02-17T07:48:53.997Z,46.17
2024-02-17T07:53:58.537Z,29.63
2024-02-17T07:59:03.131Z,36.40
2024-02-17T08:04:06.714Z,26.17
2024-02-17T08:09:10.277Z,16.17
2024-02-17T08:14:17.014Z,21.00
2024-02-17T08:19:20.877Z,19.70
2024-02-17T08:24:24.522Z,21.90
2024-02-17T08:29:27.999Z,17.65
2024-02-17T08:34:31.606Z,28.35
2024-02-17T08:39:35.218Z,19.05
2024-02-17T08:44:39.230Z,17.58
2024-02-17T08:49:42.817Z,20.08
2024-02-17T08:54:47.433Z,19.17
2024-02-17T08:59:51.222Z,19.23
2024-02-17T09:04:54.748Z,20.20
2024-02-17T09:09:58.204Z,17.17
2024-02-17T09:15:01.462Z,18.98
2024-02-17T09:20:05.975Z,20.42
2024-02-17T09:25:09.884Z,19.45
2024-02-17T09:30:14.309Z,26.52
2024-02-17T09:35:19.300Z,23.25
2024-02-17T09:40:23.033Z,17.63
2024-02-17T09:45:28.233Z,17.15
2024-02-17T09:50:32.814Z,15.60
2024-02-17T09:55:37.309Z,19.83
2024-02-17T10:00:40.757Z,17.95
2024-02-17T10:05:44.911Z,18.38
2024-02-17T10:10:48.799Z,17.48
2024-02-17T10:15:52.588Z,15.18
2024-02-17T10:20:57.868Z,15.27
2024-02-17T10:26:02.111Z,16.67
2024-02-17T10:31:05.753Z,15.07
2024-02-17T10:36:09.812Z,13.45
2024-02-17T10:41:13.975Z,17.42
2024-02-17T10:46:27.685Z,13.25
2024-02-17T10:51:32.520Z,14.63
2024-02-17T10:56:36.279Z,13.98
2024-02-17T11:01:39.841Z,13.43
2024-02-17T11:06:44.207Z,16.23
2024-02-17T11:11:47.770Z,13.15
2024-02-17T11:16:52.756Z,14.77
2024-02-17T11:21:56.904Z,16.48
2024-02-17T11:27:00.492Z,15.20
2024-02-17T11:32:04.693Z,15.15
2024-02-17T11:37:09.622Z,16.17
2024-02-17T11:42:14.425Z,18.45
2024-02-17T11:47:18.052Z,21.63
2024-02-17T11:52:21.904Z,17.35
2024-02-17T11:57:27.284Z,18.45
2024-02-17T12:02:30.836Z,13.60
2024-02-17T12:07:34.399Z,17.15
2024-02-17T12:12:40.475Z,12.55
2024-02-17T12:17:45.297Z,11.88
2024-02-17T12:22:52.554Z,11.57
2024-02-17T12:27:56.328Z,13.00
2024-02-17T12:33:08.216Z,10.02
2024-02-17T12:38:11.797Z,14.70
2024-02-17T12:43:23.355Z,11.50
2024-02-17T12:48:27.481Z,12.30
2024-02-17T12:53:34.415Z,11.75
2024-02-17T12:58:37.829Z,13.57
2024-02-17T13:03:42.035Z,16.52
2024-02-17T13:08:46.331Z,15.40
2024-02-17T13:13:51.130Z,17.48
2024-02-17T13:18:58.289Z,15.27
2024-02-17T13:24:03.559Z,13.63
2024-02-17T13:29:07.160Z,13.53
2024-02-17T13:34:11.214Z,15.27
2024-02-17T13:39:14.671Z,14.67
2024-02-17T13:44:18.631Z,13.67
2024-02-17T13:49:22.416Z,14.00
2024-02-17T13:54:27.470Z,14.87
2024-02-17T13:59:35.933Z,14.17
2024-02-17T14:04:39.948Z,14.97
2024-02-17T14:09:43.407Z,15.77
2024-02-17T14:14:47.869Z,22.93
2024-02-17T14:19:51.215Z,18.13
2024-02-17T14:24:54.660Z,17.53
2024-02-17T14:29:58.225Z,14.70
2024-02-17T14:35:01.782Z,17.33
2024-02-17T14:40:05.897Z,17.43
2024-02-17T14:45:10.741Z,17.57
2024-02-17T14:50:14.517Z,16.43
2024-02-17T14:55:18.145Z,16.70
2024-02-17T15:00:21.736Z,23.43
2024-02-17T15:05:25.598Z,27.30
2024-02-17T15:10:29.135Z,22.53
2024-02-17T15:15:32.870Z,18.50
2024-02-17T15:20:36.999Z,15.20
2024-02-17T15:25:41.683Z,15.73
2024-02-17T15:30:47.037Z,16.97
2024-02-17T15:35:51.473Z,18.17
2024-02-17T15:40:55.967Z,16.70
2024-02-17T15:46:01.229Z,21.37
2024-02-17T15:51:06.621Z,17.60
2024-02-17T15:56:17.536Z,21.07
2024-02-17T16:01:21.560Z,18.90
2024-02-17T16:06:25.281Z,17.73
2024-02-17T16:11:28.761Z,21.07
2024-02-17T16:16:32.172Z,19.33
2024-02-17T16:21:36.560Z,16.60
2024-02-17T16:26:40.728Z,18.73
2024-02-17T16:31:44.454Z,17.33
2024-02-17T16:36:47.846Z,16.67
2024-02-17T16:41:52.260Z,17.33
2024-02-17T16:46:55.708Z,20.97
2024-02-17T16:51:59.432Z,20.43
2024-02-17T16:57:08.300Z,18.77
2024-02-17T17:02:13.004Z,20.73
2024-02-17T17:07:18.458Z,17.50
2024-02-17T17:12:22.761Z,17.33
2024-02-17T17:17:26.447Z,18.43
2024-02-17T17:22:39.796Z,19.57
2024-02-17T17:27:50.447Z,21.80
2024-02-17T17:32:53.887Z,22.80
2024-02-17T17:37:57.389Z,26.40
2024-02-17T17:43:06.639Z,23.47
2024-02-17T17:48:12.271Z,15.17
2024-02-17T17:53:16.611Z,17.30
2024-02-17T17:58:20.649Z,17.40
2024-02-17T18:03:24.399Z,17.57
2024-02-17T18:08:29.866Z,18.93
2024-02-17T18:13:35.135Z,18.93
2024-02-17T18:18:39.949Z,17.27
2024-02-17T18:23:43.599Z,14.00
2024-02-17T18:28:47.006Z,14.83
2024-02-17T18:33:50.999Z,13.30
2024-02-17T18:38:54.536Z,13.57
2024-02-17T18:43:58.367Z,17.77
2024-02-17T18:49:01.987Z,18.60
2024-02-17T18:54:07.201Z,15.70
2024-02-17T18:59:12.351Z,13.83
2024-02-17T19:04:16.163Z,13.10
2024-02-17T19:09:19.775Z,12.27
2024-02-17T19:14:24.203Z,12.40
2024-02-17T19:19:27.571Z,15.20
2024-02-17T19:24:31.529Z,15.20
2024-02-17T19:29:35.024Z,17.13
2024-02-17T19:34:38.863Z,16.03
2024-02-17T19:39:42.608Z,17.80
2024-02-17T19:44:46.140Z,17.77
2024-02-17T19:49:50.346Z,17.70
2024-02-17T19:54:53.961Z,17.40
2024-02-17T19:59:57.358Z,16.73
2024-02-17T20:05:01.651Z,12.67
2024-02-17T20:10:07.640Z,11.67
2024-02-17T20:15:14.100Z,9.50
2024-02-17T20:20:19.976Z,8.67
2024-02-17T20:25:24.790Z,11.87
2024-02-17T20:30:28.274Z,12.43
2024-02-17T20:35:31.704Z,16.37
2024-02-17T20:40:36.010Z,14.07
2024-02-17T20:45:39.286Z,14.17
2024-02-17T20:50:43.672Z,14.40
2024-02-17T20:55:47.469Z,17.27
2024-02-17T21:00:51.209Z,15.83
2024-02-17T21:05:56.951Z,17.47
2024-02-17T21:11:00.896Z,20.13
2024-02-17T21:16:04.889Z,23.47
2024-02-17T21:21:09.154Z,19.70
2024-02-17T21:26:12.616Z,20.70
2024-02-17T21:31:22.353Z,21.83
2024-02-17T21:36:27.469Z,18.93
2024-02-17T21:41:31.017Z,16.67
2024-02-17T21:46:35.965Z,22.20
2024-02-17T21:51:39.674Z,21.33
2024-02-17T21:56:43.073Z,23.93
2024-02-17T22:01:55.203Z,22.93
2024-02-17T22:07:05.565Z,22.80
2024-02-17T22:12:09.082Z,22.40
2024-02-17T22:17:12.459Z,15.67
2024-02-17T22:22:15.936Z,17.37
2024-02-17T22:27:19.780Z,11.57
2024-02-17T22:32:23.319Z,11.40
2024-02-17T22:37:26.689Z,9.10
2024-02-17T22:42:30.135Z,10.57
2024-02-17T22:47:33.659Z,10.80
2024-02-17T22:52:37.544Z,13.20
2024-02-17T22:57:41.512Z,11.73
2024-02-17T23:02:45.083Z,10.27
2024-02-17T23:07:49.290Z,11.73
2024-02-17T23:12:52.908Z,11.50
2024-02-17T23:17:56.697Z,11.57
2024-02-17T23:23:01.167Z,12.63
2024-02-17T23:28:05.311Z,13.43
2024-02-17T23:33:09.107Z,17.73
2024-02-17T23:38:12.815Z,12.77
2024-02-17T23:43:16.175Z,12.77
2024-02-17T23:48:19.705Z,14.50
2024-02-17T23:53:23.164Z,14.57
2024-02-17T23:58:27.189Z,14.83
